Decoded Metar for ZSPD (SHANGHAI/PUDONG in CHINA) (IATA:N/A) | Meteo·Mobile Aviation Weather
aviador You're here:

ZSPD Decoded Metar

SHANGHAI/PUDONG in CHINA
Report Time2019-07-22 15:30:00
UTC Time2019-07-22 16:02:12
Flight Rules vfr VFR
Wind170° at 12 kt
W.Decomp.*RWY 17: 12.0 kt HW 1.0 kt RCW
RWY 16: 11.6 kt HW 3.1 kt RCW
Visibility9999 m
Phenomena:N/A
Clouds:N/A
Expected CloudBase > 800 ft AGL from Temp-Dew spread
CeilingNone
Temp28°C (ISA +13)
Dew Point26°C (89% RH)
Heat Index33.6°C
QNH1004 hPa
Density Alt2,257 ft
Elevation13 ft
Report Wrong Elevation
Raw Report
METAR ZSPD 221530Z 17006MPS CAVOK 28/26 Q1004 NOSIG=

Extra information for ZSPD:More info

Metar Taf Metar & Taf Last 4 Metars F.Rules Stats Wind Profile Meteogram Temp Stats Airport Information Weather charts Add Link Nearby VenuesMetar ALERT Operation Metar Decoded Social comments